createdAt,value
2019-02-11T00:00:59.052Z,2.90
2019-02-11T00:03:28.360Z,6.70
2019-02-11T00:05:57.647Z,2.93
2019-02-11T00:08:26.973Z,47.63
2019-02-11T00:10:56.262Z,22.03
2019-02-11T00:13:25.578Z,50.40
2019-02-11T00:15:55.856Z,15.63
2019-02-11T00:18:25.139Z,8.97
2019-02-11T00:20:54.449Z,4.07
2019-02-11T00:23:23.731Z,1.60
2019-02-11T00:25:53.045Z,0.47
2019-02-11T00:28:22.357Z,0.83
2019-02-11T00:30:51.665Z,3.83
2019-02-11T00:33:20.952Z,2.23
2019-02-11T00:35:50.255Z,2.00
2019-02-11T00:38:19.577Z,2.23
2019-02-11T00:40:48.863Z,1.20
2019-02-11T00:43:19.443Z,1.17
2019-02-11T00:45:48.943Z,2.57
2019-02-11T00:48:18.246Z,2.33
2019-02-11T00:50:47.554Z,0.53
2019-02-11T00:53:16.865Z,0.70
2019-02-11T00:55:46.172Z,0.80
2019-02-11T00:58:15.461Z,0.80
2019-02-11T01:00:44.748Z,0.30
2019-02-11T01:03:14.062Z,0.50
2019-02-11T01:05:43.350Z,0.50
2019-02-11T01:08:12.668Z,0.53
2019-02-11T01:10:41.946Z,0.30
2019-02-11T01:13:11.259Z,0.30
2019-02-11T01:15:40.562Z,0.50
2019-02-11T01:18:09.869Z,2.00
2019-02-11T01:20:39.184Z,0.60
2019-02-11T01:23:08.466Z,0.93
2019-02-11T01:25:37.777Z,1.43
2019-02-11T01:28:07.065Z,0.83
2019-02-11T01:30:36.374Z,1.07
2019-02-11T01:33:05.686Z,0.40
2019-02-11T01:35:34.972Z,2.90
2019-02-11T01:38:04.285Z,0.30
2019-02-11T01:40:33.601Z,0.33
2019-02-11T01:43:02.886Z,1.47
2019-02-11T01:45:32.207Z,1.03
2019-02-11T01:48:02.612Z,2.53
2019-02-11T01:50:31.893Z,0.33
2019-02-11T01:53:01.211Z,0.40
2019-02-11T01:55:30.494Z,0.30
2019-02-11T01:57:59.805Z,1.90
2019-02-11T02:00:29.111Z,0.30
2019-02-11T02:02:58.420Z,0.30
2019-02-11T02:05:27.776Z,0.43
2019-02-11T02:07:57.082Z,0.40
2019-02-11T02:10:26.392Z,0.20
2019-02-11T02:12:55.705Z,0.30
2019-02-11T02:15:24.993Z,0.30
2019-02-11T02:17:54.276Z,0.50
2019-02-11T02:20:23.586Z,0.30
2019-02-11T02:22:52.895Z,0.43
2019-02-11T02:25:22.211Z,0.30
2019-02-11T02:27:51.491Z,0.33
2019-02-11T02:30:20.814Z,0.30
2019-02-11T02:32:50.089Z,0.40
2019-02-11T02:35:19.396Z,0.77
2019-02-11T02:37:48.679Z,0.30
2019-02-11T02:40:17.992Z,0.30
2019-02-11T02:42:47.267Z,0.30
2019-02-11T02:45:18.178Z,0.33
2019-02-11T02:47:47.482Z,0.93
2019-02-11T02:50:16.769Z,0.53
2019-02-11T02:52:46.079Z,3.67
2019-02-11T02:55:15.370Z,1.13
2019-02-11T02:57:44.680Z,1.20
2019-02-11T03:00:13.968Z,0.93
2019-02-11T03:02:43.279Z,2.60
2019-02-11T03:05:12.604Z,2.07
2019-02-11T03:07:41.876Z,1.67
2019-02-11T03:10:12.030Z,2.20
2019-02-11T03:12:41.328Z,2.67
2019-02-11T03:15:11.881Z,0.70
2019-02-11T03:17:41.274Z,0.77
2019-02-11T03:20:11.066Z,0.60
2019-02-11T03:22:40.356Z,1.00
2019-02-11T03:25:09.978Z,0.70
2019-02-11T03:27:39.292Z,1.50
2019-02-11T03:30:10.439Z,1.03
2019-02-11T03:32:39.718Z,2.33
2019-02-11T03:35:08.995Z,2.10
2019-02-11T03:37:38.305Z,0.50
2019-02-11T03:40:10.107Z,0.80
2019-02-11T03:42:39.425Z,1.67
2019-02-11T03:45:15.114Z,4.57
2019-02-11T03:47:44.425Z,10.13
2019-02-11T03:50:13.711Z,11.07
2019-02-11T03:52:43.026Z,12.27
2019-02-11T03:55:12.316Z,9.23
2019-02-11T03:57:41.619Z,3.37
2019-02-11T04:00:12.773Z,5.73
2019-02-11T04:02:42.097Z,1.03
2019-02-11T04:05:11.379Z,1.37
2019-02-11T04:07:40.688Z,3.07
2019-02-11T04:10:11.409Z,1.73
2019-02-11T04:12:40.717Z,1.03
2019-02-11T04:15:10.403Z,1.57
2019-02-11T04:17:39.709Z,0.80
2019-02-11T04:20:09.459Z,1.20
2019-02-11T04:22:38.780Z,1.43
2019-02-11T04:25:08.139Z,2.00
2019-02-11T04:27:37.433Z,1.03
2019-02-11T04:30:09.669Z,1.13
2019-02-11T04:32:38.957Z,2.20
2019-02-11T04:35:08.274Z,0.73
2019-02-11T04:37:37.576Z,0.47
2019-02-11T04:40:10.870Z,0.97
2019-02-11T04:42:40.164Z,2.20
2019-02-11T04:45:10.866Z,2.33
2019-02-11T04:47:40.170Z,0.70
2019-02-11T04:50:10.524Z,0.80
2019-02-11T04:52:39.819Z,0.80
2019-02-11T04:55:10.371Z,1.13
2019-02-11T04:57:39.655Z,0.60
2019-02-11T05:00:14.294Z,0.60
2019-02-11T05:02:43.576Z,0.87
2019-02-11T05:05:12.905Z,0.60
2019-02-11T05:07:42.268Z,0.83
2019-02-11T05:10:15.031Z,0.93
2019-02-11T05:12:44.354Z,1.00
2019-02-11T05:15:13.637Z,0.73
2019-02-11T05:17:42.926Z,0.60
2019-02-11T05:20:13.088Z,0.80
2019-02-11T05:22:42.414Z,1.90
2019-02-11T05:25:11.689Z,1.17
2019-02-11T05:27:41.006Z,1.10
2019-02-11T05:30:11.817Z,1.17
2019-02-11T05:32:41.129Z,0.70
2019-02-11T05:35:10.443Z,0.83
2019-02-11T05:37:39.732Z,0.93
2019-02-11T05:40:12.132Z,2.63
2019-02-11T05:42:41.396Z,1.87
2019-02-11T05:45:10.713Z,1.57
2019-02-11T05:47:40.006Z,1.00
2019-02-11T05:50:12.027Z,0.80
2019-02-11T05:52:41.314Z,1.47
2019-02-11T05:55:10.639Z,3.77
2019-02-11T05:57:39.933Z,2.27
2019-02-11T06:00:13.788Z,4.73
2019-02-11T06:02:43.087Z,2.53
2019-02-11T06:05:12.539Z,3.73
2019-02-11T06:07:41.828Z,3.37
2019-02-11T06:10:11.679Z,10.13
2019-02-11T06:12:40.998Z,15.50
2019-02-11T06:15:10.359Z,19.33
2019-02-11T06:17:39.681Z,16.73
2019-02-11T06:20:10.572Z,17.83
2019-02-11T06:22:39.892Z,6.27
2019-02-11T06:25:09.551Z,10.63
2019-02-11T06:27:38.867Z,10.10
2019-02-11T06:30:12.265Z,8.50
2019-02-11T06:32:41.573Z,7.70
2019-02-11T06:35:10.890Z,7.50
2019-02-11T06:37:40.171Z,4.80
2019-02-11T06:40:11.120Z,6.83
2019-02-11T06:42:40.419Z,8.13
2019-02-11T06:45:13.531Z,7.20
2019-02-11T06:47:42.938Z,6.40
2019-02-11T06:50:15.142Z,11.77
2019-02-11T06:52:44.450Z,13.47
2019-02-11T06:55:13.872Z,18.43
2019-02-11T06:57:43.181Z,17.07
2019-02-11T07:00:15.077Z,11.70
2019-02-11T07:02:44.395Z,15.87
2019-02-11T07:05:13.681Z,18.00
2019-02-11T07:07:43.085Z,17.97
2019-02-11T07:10:12.767Z,19.47
2019-02-11T07:12:42.059Z,19.27
2019-02-11T07:15:21.494Z,31.57
2019-02-11T07:17:45.000Z,47.10
2019-02-11T07:20:14.318Z,43.80
2019-02-11T07:22:43.609Z,35.80
2019-02-11T07:25:12.917Z,36.33
2019-02-11T07:27:42.230Z,31.03
2019-02-11T07:30:13.340Z,25.10
2019-02-11T07:32:42.701Z,21.80
2019-02-11T07:35:11.942Z,19.40
2019-02-11T07:37:41.273Z,17.83
2019-02-11T07:40:12.229Z,18.23
2019-02-11T07:42:43.179Z,12.87
2019-02-11T07:45:14.110Z,13.77
2019-02-11T07:47:43.427Z,19.17
2019-02-11T07:50:12.752Z,23.17
2019-02-11T07:52:42.064Z,20.20
2019-02-11T07:55:11.445Z,24.70
2019-02-11T07:57:40.762Z,24.53
2019-02-11T08:00:10.606Z,35.03
2019-02-11T08:02:39.925Z,47.97
2019-02-11T08:05:09.238Z,52.97
2019-02-11T08:07:38.560Z,91.53
2019-02-11T08:10:08.852Z,79.00
2019-02-11T08:12:38.167Z,51.60
2019-02-11T08:15:10.590Z,53.20
2019-02-11T08:17:39.879Z,51.00
2019-02-11T08:20:09.971Z,25.13
2019-02-11T08:22:39.266Z,18.87
2019-02-11T08:25:08.585Z,22.10
2019-02-11T08:27:37.904Z,23.70
2019-02-11T08:30:10.647Z,16.10
2019-02-11T08:32:39.922Z,20.53
2019-02-11T08:35:09.487Z,18.00
2019-02-11T08:37:38.797Z,17.53
2019-02-11T08:40:09.997Z,20.47
2019-02-11T08:42:39.307Z,10.30
2019-02-11T08:45:10.832Z,11.40
2019-02-11T08:47:40.154Z,9.83
2019-02-11T08:50:10.207Z,7.60
2019-02-11T08:52:39.495Z,7.23
2019-02-11T08:55:09.275Z,9.40
2019-02-11T08:57:38.556Z,8.60
2019-02-11T09:00:11.074Z,33.37
2019-02-11T09:02:40.464Z,30.90
2019-02-11T09:05:09.755Z,30.83
2019-02-11T09:07:39.076Z,27.63
2019-02-11T09:10:11.401Z,26.83
2019-02-11T09:12:40.686Z,20.67
2019-02-11T09:15:12.410Z,22.13
2019-02-11T09:17:41.715Z,25.63
2019-02-11T09:20:11.670Z,25.93
2019-02-11T09:22:40.979Z,36.07
2019-02-11T09:25:11.291Z,25.27
2019-02-11T09:27:40.607Z,16.73
2019-02-11T09:30:16.600Z,18.87
2019-02-11T09:32:45.931Z,13.43
2019-02-11T09:35:15.211Z,14.37
2019-02-11T09:37:44.518Z,13.73
2019-02-11T09:40:16.201Z,10.80
2019-02-11T09:42:45.688Z,13.37
2019-02-11T09:45:25.448Z,10.33
2019-02-11T09:47:54.802Z,6.87
2019-02-11T09:50:45.840Z,6.37
2019-02-11T09:53:15.127Z,6.87
2019-02-11T09:55:44.431Z,6.13
2019-02-11T09:58:13.723Z,5.80
2019-02-11T10:00:43.033Z,6.60
2019-02-11T10:03:12.325Z,10.40
2019-02-11T10:05:41.716Z,15.60
2019-02-11T10:08:11.010Z,27.60
2019-02-11T10:10:41.852Z,47.20
2019-02-11T10:13:11.179Z,33.63
2019-02-11T10:15:40.484Z,19.93
2019-02-11T10:18:09.794Z,17.83
2019-02-11T10:20:39.084Z,14.73
2019-02-11T10:23:08.388Z,9.43
2019-02-11T10:25:37.670Z,4.33
2019-02-11T10:28:12.346Z,5.97
2019-02-11T10:30:41.653Z,5.47
2019-02-11T10:33:10.943Z,3.50
2019-02-11T10:35:42.245Z,7.07
2019-02-11T10:38:11.328Z,5.70
2019-02-11T10:40:40.641Z,3.97
2019-02-11T10:43:09.936Z,12.67
2019-02-11T10:45:39.253Z,2.27
2019-02-11T10:48:08.539Z,9.80
2019-02-11T10:50:37.839Z,2.33
2019-02-11T10:53:07.134Z,0.87
2019-02-11T10:55:36.514Z,0.60
2019-02-11T10:58:05.821Z,0.77
2019-02-11T11:00:35.307Z,0.20
2019-02-11T11:03:04.590Z,0.50
2019-02-11T11:05:33.911Z,0.30
2019-02-11T11:08:04.104Z,0.97
2019-02-11T11:10:39.477Z,0.50
2019-02-11T11:13:08.861Z,1.70
2019-02-11T11:15:38.126Z,0.30
2019-02-11T11:18:07.610Z,0.40
2019-02-11T11:20:36.933Z,3.33
2019-02-11T11:23:06.215Z,1.57
2019-02-11T11:25:35.502Z,1.60
2019-02-11T11:28:04.825Z,0.60
2019-02-11T11:30:34.102Z,1.60
2019-02-11T11:33:03.559Z,0.73
2019-02-11T11:35:32.842Z,0.33
2019-02-11T11:38:02.157Z,0.40
2019-02-11T11:40:31.445Z,0.63
2019-02-11T11:43:00.757Z,0.37
2019-02-11T11:45:30.037Z,0.40
2019-02-11T11:48:05.124Z,0.63
2019-02-11T11:50:34.413Z,0.47
2019-02-11T11:53:03.722Z,0.40
2019-02-11T11:55:33.013Z,0.83
2019-02-11T11:58:02.322Z,1.07
2019-02-11T12:00:34.054Z,0.40
2019-02-11T12:03:05.228Z,0.20
2019-02-11T12:05:34.405Z,0.20
2019-02-11T12:08:03.759Z,0.23
2019-02-11T12:10:33.123Z,0.57
2019-02-11T12:13:20.519Z,0.37
2019-02-11T12:15:33.510Z,2.83
2019-02-11T12:18:02.802Z,0.40
2019-02-11T12:20:33.704Z,3.93
2019-02-11T12:23:03.212Z,0.90
2019-02-11T12:25:32.507Z,0.20
2019-02-11T12:28:01.824Z,0.40
2019-02-11T12:30:31.180Z,0.87
2019-02-11T12:33:00.472Z,0.77
2019-02-11T12:35:29.772Z,1.07
2019-02-11T12:37:59.100Z,0.33
2019-02-11T12:40:28.476Z,0.83
2019-02-11T12:42:57.812Z,0.60
2019-02-11T12:45:27.108Z,0.30
2019-02-11T12:47:56.404Z,0.20
2019-02-11T12:50:25.696Z,0.97
2019-02-11T12:52:54.999Z,0.27
2019-02-11T12:55:24.301Z,0.83
2019-02-11T12:57:53.581Z,4.00
2019-02-11T13:00:24.408Z,0.43
2019-02-11T13:02:53.724Z,0.30
2019-02-11T13:05:40.303Z,0.20
2019-02-11T13:07:54.113Z,0.10
2019-02-11T13:10:23.424Z,0.50
2019-02-11T13:12:52.697Z,0.30
2019-02-11T13:15:53.325Z,0.10
2019-02-11T13:17:53.097Z,4.30
2019-02-11T13:20:22.419Z,2.77
2019-02-11T13:22:51.722Z,0.30
2019-02-11T13:25:21.082Z,0.43
2019-02-11T13:27:50.403Z,0.20
2019-02-11T13:30:26.165Z,0.67
2019-02-11T13:32:55.484Z,0.30
2019-02-11T13:35:24.825Z,0.20
2019-02-11T13:37:55.660Z,2.57
2019-02-11T13:40:25.177Z,1.27
2019-02-11T13:42:54.464Z,0.20
2019-02-11T13:45:23.829Z,0.30
2019-02-11T13:47:57.643Z,3.63
2019-02-11T13:50:26.649Z,1.53
2019-02-11T13:52:56.305Z,0.77
2019-02-11T13:55:30.167Z,1.00
2019-02-11T13:57:56.638Z,0.50
2019-02-11T14:00:31.365Z,0.93
2019-02-11T14:03:04.478Z,0.80
2019-02-11T14:05:33.856Z,2.03
2019-02-11T14:08:03.345Z,0.60
2019-02-11T14:10:32.759Z,1.10
2019-02-11T14:13:02.097Z,1.10
2019-02-11T14:15:31.420Z,3.03
2019-02-11T14:18:13.976Z,5.80
2019-02-11T14:20:40.848Z,2.93
2019-02-11T14:23:10.127Z,3.10
2019-02-11T14:25:44.766Z,0.83
2019-02-11T14:28:10.443Z,0.53
2019-02-11T14:30:39.759Z,0.63
2019-02-11T14:33:09.043Z,0.20
2019-02-11T14:35:38.341Z,0.57
2019-02-11T14:38:07.649Z,0.50
2019-02-11T14:40:36.969Z,0.50
2019-02-11T14:43:06.243Z,0.83
2019-02-11T14:45:35.564Z,0.60
2019-02-11T14:48:04.914Z,5.63
2019-02-11T14:50:34.217Z,0.30
2019-02-11T14:53:03.529Z,0.30
2019-02-11T14:55:32.816Z,0.50
2019-02-11T14:58:02.128Z,0.20
2019-02-11T15:00:31.448Z,1.00
2019-02-11T15:03:00.727Z,0.77
2019-02-11T15:05:30.017Z,0.90
2019-02-11T15:07:59.324Z,0.43
2019-02-11T15:10:28.619Z,0.27
2019-02-11T15:12:57.959Z,5.30
2019-02-11T15:15:27.224Z,0.70
2019-02-11T15:17:56.510Z,0.60
2019-02-11T15:20:27.174Z,0.40
2019-02-11T15:22:56.539Z,0.50
2019-02-11T15:25:25.809Z,1.13
2019-02-11T15:27:55.088Z,0.50
2019-02-11T15:30:24.405Z,0.60
2019-02-11T15:32:53.696Z,0.50
2019-02-11T15:35:23.022Z,0.60
2019-02-11T15:37:52.486Z,0.40
2019-02-11T15:40:23.503Z,5.53
2019-02-11T15:42:53.055Z,1.33
2019-02-11T15:45:22.330Z,1.20
2019-02-11T15:47:51.642Z,1.03
2019-02-11T15:50:20.933Z,0.30
2019-02-11T15:52:50.240Z,0.30
2019-02-11T15:55:23.031Z,0.53
2019-02-11T15:57:52.348Z,0.73
2019-02-11T16:00:24.019Z,1.23
2019-02-11T16:02:53.340Z,0.77
2019-02-11T16:05:22.619Z,0.80
2019-02-11T16:07:51.935Z,2.03
2019-02-11T16:10:29.739Z,1.00
2019-02-11T16:12:59.017Z,1.30
2019-02-11T16:15:28.306Z,1.40
2019-02-11T16:17:57.689Z,6.33
2019-02-11T16:20:26.992Z,2.80
2019-02-11T16:22:56.277Z,4.13
2019-02-11T16:25:25.565Z,5.93
2019-02-11T16:27:54.880Z,1.33
2019-02-11T16:30:24.197Z,3.00
2019-02-11T16:32:53.505Z,0.80
2019-02-11T16:35:23.191Z,3.90
2019-02-11T16:37:52.528Z,2.30
2019-02-11T16:40:30.836Z,0.50
2019-02-11T16:43:00.148Z,0.87
2019-02-11T16:45:29.439Z,1.23
2019-02-11T16:47:58.779Z,1.57
2019-02-11T16:50:28.092Z,1.53
2019-02-11T16:52:57.382Z,0.50
2019-02-11T16:55:26.666Z,1.37
2019-02-11T16:57:55.976Z,0.97
2019-02-11T17:00:25.265Z,0.97
2019-02-11T17:02:54.569Z,0.37
2019-02-11T17:05:23.877Z,2.47
2019-02-11T17:07:53.197Z,2.80
2019-02-11T17:10:22.491Z,3.10
2019-02-11T17:12:51.775Z,2.93
2019-02-11T17:15:21.721Z,5.17
2019-02-11T17:17:51.017Z,0.30
2019-02-11T17:20:20.301Z,4.03
2019-02-11T17:22:49.606Z,2.20
2019-02-11T17:25:18.916Z,2.50
2019-02-11T17:27:48.201Z,1.43
2019-02-11T17:30:36.609Z,0.30
2019-02-11T17:33:05.893Z,2.93
2019-02-11T17:35:35.210Z,5.37
2019-02-11T17:38:04.517Z,1.00
2019-02-11T17:40:33.830Z,1.37
2019-02-11T17:43:03.137Z,3.53
2019-02-11T17:45:33.161Z,0.50
2019-02-11T17:48:02.473Z,1.17
2019-02-11T17:50:31.782Z,2.33
2019-02-11T17:53:08.837Z,1.80
2019-02-11T17:55:38.142Z,2.03
2019-02-11T17:58:07.496Z,1.47
2019-02-11T18:00:49.586Z,0.73
2019-02-11T18:03:18.877Z,0.23
2019-02-11T18:05:48.180Z,0.50
2019-02-11T18:08:17.495Z,0.47
2019-02-11T18:10:46.950Z,0.33
2019-02-11T18:13:16.279Z,2.83
2019-02-11T18:15:45.566Z,0.40
2019-02-11T18:18:14.875Z,0.30
2019-02-11T18:20:44.190Z,3.97
2019-02-11T18:23:13.509Z,0.20
2019-02-11T18:25:42.810Z,0.83
2019-02-11T18:28:12.094Z,0.33
2019-02-11T18:30:41.397Z,1.60
2019-02-11T18:33:10.713Z,2.23
2019-02-11T18:35:39.997Z,1.63
2019-02-11T18:38:09.310Z,1.10
2019-02-11T18:40:38.620Z,0.60
2019-02-11T18:43:07.927Z,1.70
2019-02-11T18:45:37.249Z,1.00
2019-02-11T18:48:06.553Z,1.80
2019-02-11T18:50:35.862Z,0.57
2019-02-11T18:53:05.148Z,0.57
2019-02-11T18:55:34.454Z,0.43
2019-02-11T18:58:03.784Z,0.60
2019-02-11T19:00:33.066Z,0.63
2019-02-11T19:03:02.382Z,0.53
2019-02-11T19:05:31.771Z,4.83
2019-02-11T19:08:01.053Z,0.50
2019-02-11T19:10:30.364Z,0.40
2019-02-11T19:12:59.719Z,0.40
2019-02-11T19:15:29.038Z,0.60
2019-02-11T19:17:58.318Z,0.73
2019-02-11T19:20:27.625Z,0.30
2019-02-11T19:22:56.910Z,0.40
2019-02-11T19:25:26.219Z,0.20
2019-02-11T19:27:55.521Z,0.50
2019-02-11T19:30:29.250Z,0.50
2019-02-11T19:32:58.636Z,0.40
2019-02-11T19:35:27.954Z,0.37
2019-02-11T19:37:57.242Z,0.97
2019-02-11T19:40:26.522Z,0.40
2019-02-11T19:42:55.838Z,2.93
2019-02-11T19:45:25.388Z,0.30
2019-02-11T19:47:54.703Z,1.77
2019-02-11T19:50:23.989Z,0.87
2019-02-11T19:52:53.392Z,0.70
2019-02-11T19:55:22.675Z,1.00
2019-02-11T19:57:51.954Z,0.60
2019-02-11T20:00:23.433Z,0.80
2019-02-11T20:02:52.747Z,0.30
2019-02-11T20:05:22.038Z,0.63
2019-02-11T20:07:51.342Z,1.00
2019-02-11T20:10:26.617Z,0.40
2019-02-11T20:12:55.939Z,0.80
2019-02-11T20:15:29.095Z,0.40
2019-02-11T20:17:58.379Z,0.40
2019-02-11T20:20:27.681Z,0.87
2019-02-11T20:22:56.967Z,0.50
2019-02-11T20:25:26.285Z,1.87
2019-02-11T20:27:55.568Z,1.40
2019-02-11T20:30:30.067Z,1.30
2019-02-11T20:32:59.354Z,0.20
2019-02-11T20:35:28.667Z,0.40
2019-02-11T20:37:58.982Z,0.50
2019-02-11T20:40:30.638Z,0.87
2019-02-11T20:42:59.920Z,0.40
2019-02-11T20:45:30.080Z,0.40
2019-02-11T20:47:59.365Z,0.20
2019-02-11T20:50:28.649Z,0.40
2019-02-11T20:52:57.969Z,2.23
2019-02-11T20:55:27.256Z,1.53
2019-02-11T20:58:00.939Z,0.93
2019-02-11T21:00:30.231Z,0.50
2019-02-11T21:03:07.910Z,1.73
2019-02-11T21:05:30.565Z,0.53
2019-02-11T21:07:59.880Z,0.93
2019-02-11T21:10:29.182Z,0.40
2019-02-11T21:12:58.471Z,0.50
2019-02-11T21:15:27.748Z,0.47
2019-02-11T21:17:57.057Z,0.40
2019-02-11T21:20:36.626Z,0.20
2019-02-11T21:23:08.149Z,0.30
2019-02-11T21:25:37.458Z,0.90
2019-02-11T21:28:06.746Z,0.70
2019-02-11T21:30:36.055Z,0.70
2019-02-11T21:33:05.375Z,0.87
2019-02-11T21:35:34.655Z,1.27
2019-02-11T21:38:03.936Z,1.30
2019-02-11T21:40:33.251Z,1.80
2019-02-11T21:43:02.571Z,1.20
2019-02-11T21:45:31.852Z,0.40
2019-02-11T21:48:01.165Z,0.50
2019-02-11T21:50:30.458Z,0.53
2019-02-11T21:52:59.769Z,1.17
2019-02-11T21:55:29.056Z,1.57
2019-02-11T21:57:58.356Z,0.73
2019-02-11T22:00:27.665Z,0.87
2019-02-11T22:02:56.996Z,1.60
2019-02-11T22:05:26.254Z,1.17
2019-02-11T22:07:55.567Z,2.07
2019-02-11T22:10:24.947Z,1.00
2019-02-11T22:12:54.231Z,1.73
2019-02-11T22:15:23.545Z,2.00
2019-02-11T22:17:52.859Z,0.73
2019-02-11T22:20:22.880Z,2.80
2019-02-11T22:22:52.187Z,0.70
2019-02-11T22:25:21.473Z,1.93
2019-02-11T22:27:50.790Z,0.60
2019-02-11T22:30:24.878Z,0.40
2019-02-11T22:32:54.159Z,0.47
2019-02-11T22:35:23.469Z,0.53
2019-02-11T22:37:52.925Z,0.90
2019-02-11T22:40:22.244Z,0.40
2019-02-11T22:42:51.556Z,0.40
2019-02-11T22:45:26.805Z,0.40
2019-02-11T22:47:56.118Z,0.40
2019-02-11T22:50:25.401Z,0.20
2019-02-11T22:52:54.717Z,0.47
2019-02-11T22:55:24.042Z,0.30
2019-02-11T22:57:53.324Z,0.40
2019-02-11T23:00:49.204Z,0.77
2019-02-11T23:03:18.584Z,0.50
2019-02-11T23:05:47.870Z,0.53
2019-02-11T23:08:17.174Z,0.40
2019-02-11T23:10:46.484Z,0.80
2019-02-11T23:13:15.763Z,0.40
2019-02-11T23:15:45.080Z,0.40
2019-02-11T23:18:14.364Z,3.30
2019-02-11T23:20:51.545Z,0.30
2019-02-11T23:23:14.709Z,0.50
2019-02-11T23:25:44.032Z,0.20
2019-02-11T23:28:13.315Z,0.20
2019-02-11T23:30:42.597Z,0.20
2019-02-11T23:33:11.907Z,0.20
2019-02-11T23:35:41.192Z,1.10
2019-02-11T23:38:10.508Z,0.37
2019-02-11T23:40:39.790Z,0.20
2019-02-11T23:43:09.170Z,0.20
2019-02-11T23:45:38.454Z,0.40
2019-02-11T23:48:07.760Z,0.83
2019-02-11T23:50:37.051Z,0.43
2019-02-11T23:53:06.365Z,1.40
2019-02-11T23:55:35.651Z,0.60
2019-02-11T23:58:04.960Z,1.40
